Terminal Aerodrome Forecast
Issued by NWS

Home | Current Version | Previous Version | Graphics & Text | Print | Product List | Glossary On
Versions: 1 2 3 4 5 6 7 8 9 10 11 12 13 14 15 16 17 18 19 20
000
FTUS43 KGRB 200400 AAA
TAFCWA
TAF AMD
KCWA 200446Z 2005/2024 28012G19KT P6SM -SN BKN050 BKN080
      TEMPO 2005/2008 3SM -SHSN BKN015
     FM200800 29011KT P6SM SCT050 SCT080
     FM201600 29012G20KT P6SM SCT035 BKN050
      AMD LTD TO CLD VIS AND WIND 2003/2011=

USA.gov is the U.S. government's official web portal to all federal, state and local government web resources and services.